This is the latest recevied weather packets stored in our database for station/object ZS6IIXF. If no packets are shown the sender has not sent any weather packets the latest 1 day(s).
| Time | Temp. | Humidity | Pressure | Rain* | Wind** | Luminosity | Snow |
|---|---|---|---|---|---|---|---|
| 1778078896 | 23.33° C | 34% | 848 hPa | - | - | - | - |
| 1778077816 | 23.33° C | 33% | 847.7 hPa | - | - | - | - |
| 1778075656 | 23.89° C | 32% | 847.5 hPa | - | - | - | - |
| 1778070248 | 23.89° C | 32% | 847.3 hPa | - | - | - | - |
| 1778069192 | 23.89° C | 32% | 847.3 hPa | - | - | - | - |
| 1778069166 | 23.33° C | 32% | 847.4 hPa | - | - | - | - |
| 1778068112 | 23.33° C | 32% | 847.4 hPa | - | - | - | - |
| 1778068086 | 23.89° C | 32% | 847.6 hPa | - | - | - | - |
| 1778067032 | 23.89° C | 32% | 847.6 hPa | - | - | - | - |
| 1778065924 | 23.89° C | 32% | 847.9 hPa | - | - | - | - |
| 1778064872 | 23.89° C | 32% | 847.9 hPa | - | - | - | - |
| 1778063987 | 23.89° C | 32% | 848.2 hPa | - | - | - | - |
| 1778062684 | 23.33° C | 33% | 848.4 hPa | - | - | - | - |
| 1778059444 | 22.78° C | 35% | 849 hPa | - | - | - | - |
| 1778058364 | 23.33° C | 35% | 849.1 hPa | - | - | - | - |
| 1778055151 | 23.33° C | 38% | 849.5 hPa | - | - | - | - |
| 1778054071 | 23.33° C | 36% | 849.5 hPa | - | - | - | - |
| 1778054044 | 23.33° C | 38% | 849.4 hPa | - | - | - | - |
| 1778052991 | 23.33° C | 38% | 849.4 hPa | - | - | - | - |
| 1778051953 | 23.33° C | 38% | 849.3 hPa | - | - | - | - |
| 1778051911 | 23.33° C | 38% | 849.3 hPa | - | - | - | - |
| 1778051884 | 22.78° C | 37% | 849.2 hPa | - | - | - | - |
| 1778050831 | 22.78° C | 37% | 849.2 hPa | - | - | - | - |
| 1778049751 | 22.78° C | 39% | 849.4 hPa | - | - | - | - |
| 1778048671 | 22.78° C | 37% | 849 hPa | - | - | - | - |
* Rain since midnight (hover to see other rain measurements)
** Current wind speed in m/s (hover to see current wind gust speed)